createdAt,value
2022-11-16T00:00:20.830Z,1.10
2022-11-16T00:02:53.097Z,1.42
2022-11-16T00:05:28.189Z,1.55
2022-11-16T00:08:19.805Z,1.70
2022-11-16T00:10:50.201Z,1.85
2022-11-16T00:13:20.893Z,1.75
2022-11-16T00:15:58.736Z,1.10
2022-11-16T00:18:30.494Z,1.25
2022-11-16T00:21:01.712Z,1.40
2022-11-16T00:23:31.766Z,1.30
2022-11-16T00:26:06.985Z,1.25
2022-11-16T00:28:38.219Z,1.17
2022-11-16T00:31:09.548Z,1.80
2022-11-16T00:33:41.274Z,1.42
2022-11-16T00:36:14.146Z,2.10
2022-11-16T00:38:45.164Z,1.30
2022-11-16T00:41:16.929Z,1.10
2022-11-16T00:43:47.211Z,1.30
2022-11-16T00:46:17.367Z,1.45
2022-11-16T00:48:47.835Z,1.27
2022-11-16T00:51:18.214Z,0.95
2022-11-16T00:53:48.126Z,1.08
2022-11-16T00:56:18.150Z,1.45
2022-11-16T00:58:48.414Z,1.25
2022-11-16T01:01:19.686Z,1.30
2022-11-16T01:03:50.456Z,1.60
2022-11-16T01:06:21.923Z,1.30
2022-11-16T01:08:52.644Z,1.20
2022-11-16T01:11:41.187Z,1.60
2022-11-16T01:14:13.010Z,1.35
2022-11-16T01:16:44.913Z,1.13
2022-11-16T01:19:15.220Z,1.20
2022-11-16T01:21:45.544Z,1.15
2022-11-16T01:24:16.032Z,1.35
2022-11-16T01:26:46.294Z,1.30
2022-11-16T01:29:34.597Z,1.50
2022-11-16T01:32:05.360Z,1.17
2022-11-16T01:34:36.893Z,1.00
2022-11-16T01:37:15.541Z,1.25
2022-11-16T01:39:45.684Z,1.20
2022-11-16T01:42:24.330Z,1.13
2022-11-16T01:45:28.365Z,1.48
2022-11-16T01:48:00.205Z,1.27
2022-11-16T01:50:34.649Z,1.13
2022-11-16T01:53:26.079Z,1.20
2022-11-16T01:55:59.636Z,1.60
2022-11-16T01:58:48.410Z,1.23
2022-11-16T02:01:28.110Z,1.35
2022-11-16T02:04:02.919Z,1.40
2022-11-16T02:07:02.130Z,1.23
2022-11-16T02:10:02.684Z,1.15
2022-11-16T02:12:55.517Z,1.23
2022-11-16T02:15:47.276Z,1.40
2022-11-16T02:18:29.693Z,1.73
2022-11-16T02:21:13.188Z,1.35
2022-11-16T02:24:05.553Z,1.35
2022-11-16T02:27:02.952Z,1.75
2022-11-16T02:29:52.896Z,1.48
2022-11-16T02:32:43.856Z,1.60
2022-11-16T02:35:31.649Z,1.58
2022-11-16T02:38:12.669Z,1.52
2022-11-16T02:40:47.653Z,1.67
2022-11-16T02:43:39.858Z,1.38
2022-11-16T02:46:27.786Z,1.42
2022-11-16T02:49:01.957Z,1.48
2022-11-16T02:51:34.591Z,1.50
2022-11-16T02:54:14.154Z,1.52
2022-11-16T02:56:53.690Z,1.42
2022-11-16T02:59:32.570Z,2.15
2022-11-16T03:02:29.845Z,1.73
2022-11-16T03:05:39.254Z,1.58
2022-11-16T03:08:20.041Z,1.52
2022-11-16T03:11:31.218Z,1.50
2022-11-16T03:14:08.383Z,2.40
2022-11-16T03:16:47.132Z,1.73
2022-11-16T03:19:23.701Z,1.80
2022-11-16T03:21:59.406Z,1.80
2022-11-16T03:24:31.310Z,1.48
2022-11-16T03:27:10.975Z,1.92
2022-11-16T03:29:55.546Z,1.92
2022-11-16T03:32:48.986Z,1.63
2022-11-16T03:35:26.446Z,1.95
2022-11-16T03:38:00.954Z,1.83
2022-11-16T03:40:34.861Z,1.90
2022-11-16T03:43:08.200Z,1.75
2022-11-16T03:45:39.210Z,1.55
2022-11-16T03:48:11.217Z,1.40
2022-11-16T03:50:42.737Z,1.73
2022-11-16T03:53:13.382Z,1.50
2022-11-16T03:55:48.489Z,1.63
2022-11-16T03:58:20.612Z,1.33
2022-11-16T04:00:50.869Z,1.42
2022-11-16T04:03:21.769Z,1.48
2022-11-16T04:06:10.557Z,1.50
2022-11-16T04:08:59.196Z,2.35
2022-11-16T04:11:48.313Z,1.63
2022-11-16T04:14:41.562Z,1.88
2022-11-16T04:17:37.779Z,1.52
2022-11-16T04:20:27.409Z,1.40
2022-11-16T04:23:21.609Z,1.60
2022-11-16T04:25:55.815Z,1.58
2022-11-16T04:28:32.873Z,1.35
2022-11-16T04:31:26.589Z,1.65
2022-11-16T04:34:25.218Z,1.92
2022-11-16T04:37:17.752Z,1.58
2022-11-16T04:39:48.585Z,1.25
2022-11-16T04:42:24.219Z,1.42
2022-11-16T04:45:15.060Z,1.83
2022-11-16T04:47:54.441Z,1.77
2022-11-16T04:50:29.903Z,1.70
2022-11-16T04:53:08.311Z,1.33
2022-11-16T04:55:48.336Z,1.27
2022-11-16T04:58:26.113Z,1.40
2022-11-16T05:01:01.029Z,1.67
2022-11-16T05:06:19.660Z,1.45
2022-11-16T05:08:54.092Z,1.63
2022-11-16T05:11:34.555Z,1.35
2022-11-16T05:14:26.106Z,1.27
2022-11-16T05:16:57.377Z,1.10
2022-11-16T05:19:48.728Z,1.15
2022-11-16T05:22:19.321Z,1.15
2022-11-16T05:24:53.169Z,1.30
2022-11-16T05:27:25.942Z,1.60
2022-11-16T05:30:01.338Z,1.17
2022-11-16T05:32:32.446Z,1.27
2022-11-16T05:35:04.349Z,1.38
2022-11-16T05:37:36.100Z,1.20
2022-11-16T05:40:07.587Z,0.93
2022-11-16T05:42:44.918Z,1.52
2022-11-16T05:45:20.763Z,1.30
2022-11-16T05:47:52.541Z,1.23
2022-11-16T05:50:25.055Z,1.65
2022-11-16T05:53:07.416Z,1.10
2022-11-16T05:55:38.664Z,1.50
2022-11-16T05:58:09.625Z,1.27
2022-11-16T06:00:41.552Z,1.13
2022-11-16T06:03:13.502Z,1.10
2022-11-16T06:05:44.897Z,1.10
2022-11-16T06:08:18.014Z,1.10
2022-11-16T06:10:51.054Z,1.40
2022-11-16T06:13:21.533Z,1.20
2022-11-16T06:15:56.039Z,1.20
2022-11-16T06:18:27.368Z,1.58
2022-11-16T06:20:58.708Z,1.13
2022-11-16T06:23:29.130Z,1.25
2022-11-16T06:26:00.029Z,1.50
2022-11-16T06:28:32.206Z,1.10
2022-11-16T06:31:03.687Z,1.45
2022-11-16T06:33:38.283Z,1.48
2022-11-16T06:36:14.755Z,1.40
2022-11-16T06:38:46.455Z,1.15
2022-11-16T06:41:18.090Z,1.00
2022-11-16T06:43:51.817Z,1.50
2022-11-16T06:46:26.231Z,0.90
2022-11-16T06:48:59.041Z,1.00
2022-11-16T06:51:29.974Z,1.05
2022-11-16T06:54:01.345Z,1.45
2022-11-16T06:56:32.048Z,1.17
2022-11-16T06:59:03.278Z,0.85
2022-11-16T07:01:34.054Z,0.98
2022-11-16T07:04:13.390Z,0.95
2022-11-16T07:06:49.618Z,1.10
2022-11-16T07:09:21.313Z,1.27
2022-11-16T07:11:51.904Z,1.10
2022-11-16T07:14:24.119Z,1.33
2022-11-16T07:16:59.354Z,1.50
2022-11-16T07:19:31.264Z,1.33
2022-11-16T07:22:02.040Z,1.13
2022-11-16T07:24:32.248Z,1.23
2022-11-16T07:27:03.092Z,1.13
2022-11-16T07:29:38.194Z,0.93
2022-11-16T07:32:41.487Z,1.35
2022-11-16T07:35:20.571Z,1.20
2022-11-16T07:37:50.697Z,1.33
2022-11-16T07:40:22.133Z,1.23
2022-11-16T07:42:52.817Z,0.93
2022-11-16T07:45:48.353Z,0.95
2022-11-16T07:48:18.621Z,1.10
2022-11-16T07:51:09.108Z,1.15
2022-11-16T07:53:45.643Z,1.13
2022-11-16T07:56:15.756Z,1.13
2022-11-16T07:58:47.231Z,1.00
2022-11-16T08:01:19.682Z,1.10
2022-11-16T08:03:55.447Z,1.60
2022-11-16T08:06:29.185Z,1.40
2022-11-16T08:09:00.289Z,1.20
2022-11-16T08:11:31.555Z,1.27
2022-11-16T08:14:01.917Z,1.85
2022-11-16T08:16:35.299Z,1.02
2022-11-16T08:19:11.935Z,1.13
2022-11-16T08:21:42.341Z,1.20
2022-11-16T08:24:12.624Z,0.88
2022-11-16T08:26:45.298Z,1.30
2022-11-16T08:29:17.406Z,1.30
2022-11-16T08:31:51.820Z,1.60
2022-11-16T08:34:24.174Z,1.13
2022-11-16T08:37:00.243Z,1.15
2022-11-16T08:39:42.937Z,1.40
2022-11-16T08:42:13.022Z,1.40
2022-11-16T08:44:47.563Z,1.35
2022-11-16T08:47:20.856Z,1.23
2022-11-16T08:49:57.049Z,1.00
2022-11-16T08:52:29.526Z,1.30
2022-11-16T08:55:01.436Z,1.20
2022-11-16T08:57:32.482Z,1.30
2022-11-16T09:00:08.683Z,1.20
2022-11-16T09:02:39.044Z,1.60
2022-11-16T09:05:12.953Z,0.98
2022-11-16T09:07:45.197Z,0.90
2022-11-16T09:10:15.589Z,1.25
2022-11-16T09:12:45.474Z,1.30
2022-11-16T09:15:15.376Z,1.10
2022-11-16T09:17:45.310Z,1.15
2022-11-16T09:20:15.545Z,1.15
2022-11-16T09:22:45.806Z,1.00
2022-11-16T09:25:15.790Z,1.45
2022-11-16T09:27:45.805Z,1.02
2022-11-16T09:30:16.066Z,1.20
2022-11-16T09:32:46.032Z,1.00
2022-11-16T09:35:16.008Z,1.35
2022-11-16T09:37:46.326Z,1.13
2022-11-16T09:40:16.283Z,1.58
2022-11-16T09:43:08.855Z,1.42
2022-11-16T09:45:58.435Z,1.17
2022-11-16T09:48:30.029Z,1.15
2022-11-16T09:51:08.604Z,1.00
2022-11-16T09:53:44.342Z,1.23
2022-11-16T09:56:26.648Z,1.70
2022-11-16T09:59:21.123Z,1.42
2022-11-16T10:01:57.798Z,1.27
2022-11-16T10:04:56.689Z,1.63
2022-11-16T10:07:38.307Z,1.50
2022-11-16T10:10:18.283Z,1.20
2022-11-16T10:13:13.934Z,1.23
2022-11-16T10:16:03.604Z,1.15
2022-11-16T10:18:46.397Z,1.52
2022-11-16T10:21:25.435Z,1.35
2022-11-16T10:24:04.402Z,1.20
2022-11-16T10:29:25.035Z,1.40
2022-11-16T10:32:19.167Z,1.25
2022-11-16T10:34:55.771Z,1.20
2022-11-16T10:37:31.783Z,1.20
2022-11-16T10:40:20.388Z,1.33
2022-11-16T10:43:07.486Z,1.50
2022-11-16T10:45:42.397Z,1.10
2022-11-16T10:48:17.554Z,1.50
2022-11-16T10:50:51.310Z,1.30
2022-11-16T10:53:39.075Z,1.40
2022-11-16T10:56:32.965Z,1.45
2022-11-16T10:59:08.306Z,1.92
2022-11-16T11:01:44.585Z,1.70
2022-11-16T11:04:27.482Z,1.95
2022-11-16T11:06:59.198Z,2.15
2022-11-16T11:09:35.815Z,2.63
2022-11-16T11:12:38.597Z,2.40
2022-11-16T11:15:27.826Z,1.70
2022-11-16T11:18:16.818Z,1.85
2022-11-16T11:20:54.050Z,1.10
2022-11-16T11:23:27.213Z,1.30
2022-11-16T11:26:00.934Z,1.50
2022-11-16T11:28:39.491Z,1.58
2022-11-16T11:31:47.414Z,2.00
2022-11-16T11:34:48.680Z,1.88
2022-11-16T11:37:23.871Z,1.88
2022-11-16T11:40:18.929Z,1.73
2022-11-16T11:43:01.311Z,1.80
2022-11-16T11:45:38.073Z,1.60
2022-11-16T11:48:49.061Z,1.33
2022-11-16T11:51:33.218Z,1.00
2022-11-16T11:54:06.464Z,1.20
2022-11-16T11:56:37.174Z,1.40
2022-11-16T11:59:07.327Z,1.30
2022-11-16T12:01:49.382Z,1.60
2022-11-16T12:04:54.251Z,1.42
2022-11-16T12:07:49.336Z,1.58
2022-11-16T12:10:31.436Z,1.20
2022-11-16T12:13:22.581Z,1.40
2022-11-16T12:19:07.447Z,1.67
2022-11-16T12:22:03.224Z,1.02
2022-11-16T12:24:57.939Z,1.33
2022-11-16T12:27:44.952Z,0.93
2022-11-16T12:30:23.930Z,1.00
2022-11-16T12:33:15.127Z,0.95
2022-11-16T12:36:12.071Z,0.75
2022-11-16T12:39:00.683Z,2.10
2022-11-16T12:41:41.046Z,0.60
2022-11-16T12:44:13.987Z,0.60
2022-11-16T12:46:58.685Z,0.60
2022-11-16T12:49:39.987Z,0.60
2022-11-16T12:52:44.365Z,0.70
2022-11-16T12:55:26.678Z,0.52
2022-11-16T12:58:07.373Z,0.50
2022-11-16T13:00:52.565Z,1.27
2022-11-16T13:03:30.307Z,0.63
2022-11-16T13:06:06.093Z,0.75
2022-11-16T13:08:45.315Z,0.55
2022-11-16T13:11:37.236Z,0.50
2022-11-16T13:14:14.759Z,0.40
2022-11-16T13:16:46.206Z,0.60
2022-11-16T13:19:19.211Z,0.60
2022-11-16T13:22:14.913Z,0.68
2022-11-16T13:25:01.957Z,0.70
2022-11-16T13:27:46.891Z,0.70
2022-11-16T13:30:24.134Z,0.65
2022-11-16T13:33:18.333Z,0.90
2022-11-16T13:35:48.994Z,0.60
2022-11-16T13:38:55.417Z,0.55
2022-11-16T13:41:35.121Z,1.58
2022-11-16T13:44:19.870Z,0.60
2022-11-16T13:47:05.934Z,0.32
2022-11-16T13:49:42.317Z,0.40
2022-11-16T13:52:23.729Z,0.63
2022-11-16T13:54:56.562Z,0.60
2022-11-16T14:00:03.569Z,0.40
2022-11-16T14:02:38.899Z,0.50
2022-11-16T14:05:14.851Z,0.60
2022-11-16T14:07:51.015Z,0.60
2022-11-16T14:10:46.887Z,0.50
2022-11-16T14:13:46.772Z,1.10
2022-11-16T14:16:20.551Z,0.90
2022-11-16T14:18:52.574Z,1.35
2022-11-16T14:22:08.841Z,0.82
2022-11-16T14:24:53.023Z,0.50
2022-11-16T14:27:40.332Z,0.40
2022-11-16T14:30:23.184Z,0.68
2022-11-16T14:32:56.408Z,0.40
2022-11-16T14:35:41.304Z,0.60
2022-11-16T14:38:26.326Z,0.40
2022-11-16T14:40:59.832Z,0.43
2022-11-16T14:43:37.365Z,0.50
2022-11-16T14:46:27.411Z,0.43
2022-11-16T14:49:00.756Z,0.45
2022-11-16T14:51:43.392Z,0.70
2022-11-16T14:54:18.054Z,0.40
2022-11-16T14:57:02.094Z,0.40
2022-11-16T14:59:33.171Z,0.40
2022-11-16T15:02:16.333Z,1.70
2022-11-16T15:04:47.297Z,0.50
2022-11-16T15:07:19.570Z,0.60
2022-11-16T15:10:02.143Z,0.57
2022-11-16T15:12:43.535Z,0.40
2022-11-16T15:15:18.197Z,0.80
2022-11-16T15:18:02.692Z,0.52
2022-11-16T15:20:35.261Z,0.40
2022-11-16T15:23:15.161Z,0.35
2022-11-16T15:25:55.538Z,0.40
2022-11-16T15:28:29.226Z,0.40
2022-11-16T15:31:00.337Z,0.50
2022-11-16T15:33:53.892Z,0.90
2022-11-16T15:36:51.243Z,0.60
2022-11-16T15:39:29.020Z,0.50
2022-11-16T15:42:03.784Z,0.40
2022-11-16T15:44:35.928Z,0.60
2022-11-16T15:47:06.617Z,0.60
2022-11-16T15:49:41.730Z,0.50
2022-11-16T15:52:12.551Z,0.60
2022-11-16T15:55:00.824Z,0.47
2022-11-16T15:57:31.998Z,0.45
2022-11-16T16:00:02.394Z,0.60
2022-11-16T16:02:34.631Z,0.50
2022-11-16T16:05:05.594Z,0.40
2022-11-16T16:07:43.276Z,0.65
2022-11-16T16:13:01.010Z,0.50
2022-11-16T16:15:37.819Z,0.50
2022-11-16T16:18:37.489Z,0.40
2022-11-16T16:21:08.030Z,0.50
2022-11-16T16:23:57.530Z,0.60
2022-11-16T16:26:28.223Z,0.70
2022-11-16T16:28:58.215Z,0.47
2022-11-16T16:31:28.109Z,0.32
2022-11-16T16:34:00.661Z,0.60
2022-11-16T16:36:30.985Z,0.43
2022-11-16T16:39:01.091Z,0.38
2022-11-16T16:41:31.336Z,0.40
2022-11-16T16:44:02.822Z,0.50
2022-11-16T16:49:05.275Z,0.50
2022-11-16T16:51:37.479Z,0.40
2022-11-16T16:54:16.004Z,0.55
2022-11-16T16:56:48.752Z,0.50
2022-11-16T16:59:19.635Z,0.40
2022-11-16T17:01:49.966Z,0.70
2022-11-16T17:04:22.079Z,0.52
2022-11-16T17:06:55.151Z,0.30
2022-11-16T17:09:27.062Z,1.15
2022-11-16T17:11:59.668Z,0.55
2022-11-16T17:14:31.653Z,0.50
2022-11-16T17:19:34.134Z,0.35
2022-11-16T17:22:04.470Z,1.52
2022-11-16T17:24:37.724Z,0.60
2022-11-16T17:27:09.463Z,0.60
2022-11-16T17:29:43.074Z,0.47
2022-11-16T17:32:14.388Z,0.43
2022-11-16T17:35:06.910Z,0.60
2022-11-16T17:37:42.104Z,0.50
2022-11-16T17:40:13.609Z,0.35
2022-11-16T17:42:44.843Z,0.22
2022-11-16T17:45:16.492Z,0.30
2022-11-16T17:47:48.221Z,0.40
2022-11-16T17:50:19.272Z,0.32
2022-11-16T17:52:51.028Z,0.40
2022-11-16T17:55:22.623Z,1.40
2022-11-16T17:57:54.411Z,1.60
2022-11-16T18:00:25.289Z,1.63
2022-11-16T18:02:55.614Z,0.50
2022-11-16T18:05:26.043Z,0.38
2022-11-16T18:07:56.188Z,0.50
2022-11-16T18:10:26.800Z,0.30
2022-11-16T18:12:56.708Z,0.30
2022-11-16T18:15:28.859Z,0.40
2022-11-16T18:17:59.293Z,0.40
2022-11-16T18:20:31.523Z,0.40
2022-11-16T18:23:02.069Z,0.30
2022-11-16T18:25:32.575Z,0.22
2022-11-16T18:28:02.434Z,0.30
2022-11-16T18:30:32.673Z,0.30
2022-11-16T18:33:02.525Z,0.40
2022-11-16T18:35:32.943Z,0.43
2022-11-16T18:38:03.313Z,0.30
2022-11-16T18:40:33.820Z,0.30
2022-11-16T18:43:03.747Z,0.30
2022-11-16T18:45:33.672Z,0.20
2022-11-16T18:48:03.531Z,0.30
2022-11-16T18:50:33.903Z,0.82
2022-11-16T18:53:04.730Z,0.30
2022-11-16T18:55:34.910Z,0.30
2022-11-16T18:58:22.920Z,0.30
2022-11-16T19:01:03.745Z,0.45
2022-11-16T19:03:35.107Z,0.38
2022-11-16T19:06:11.601Z,0.30
2022-11-16T19:08:43.169Z,0.22
2022-11-16T19:11:15.380Z,0.30
2022-11-16T19:13:47.109Z,0.20
2022-11-16T19:16:17.491Z,0.28
2022-11-16T19:18:47.448Z,0.20
2022-11-16T19:21:19.767Z,0.25
2022-11-16T19:23:53.589Z,0.35
2022-11-16T19:26:29.254Z,0.30
2022-11-16T19:29:00.657Z,0.60
2022-11-16T19:31:32.017Z,0.50
2022-11-16T19:34:05.777Z,0.30
2022-11-16T19:36:38.147Z,0.20
2022-11-16T19:39:08.491Z,0.38
2022-11-16T19:41:38.420Z,0.20
2022-11-16T19:44:08.555Z,0.65
2022-11-16T19:46:38.716Z,0.40
2022-11-16T19:49:11.267Z,0.30
2022-11-16T19:51:44.573Z,0.20
2022-11-16T19:54:15.982Z,0.47
2022-11-16T19:56:53.609Z,0.30
2022-11-16T19:59:24.983Z,0.30
2022-11-16T20:01:54.886Z,1.70
2022-11-16T20:04:26.654Z,0.75
2022-11-16T20:06:57.136Z,0.40
2022-11-16T20:09:27.009Z,1.30
2022-11-16T20:12:00.982Z,0.50
2022-11-16T20:14:31.472Z,0.90
2022-11-16T20:17:02.097Z,0.40
2022-11-16T20:19:32.201Z,0.30
2022-11-16T20:22:02.071Z,0.60
2022-11-16T20:24:31.936Z,0.50
2022-11-16T20:27:03.327Z,0.40
2022-11-16T20:29:33.720Z,0.28
2022-11-16T20:32:03.588Z,0.50
2022-11-16T20:34:33.493Z,0.95
2022-11-16T20:37:03.402Z,2.10
2022-11-16T20:39:33.277Z,0.60
2022-11-16T20:42:03.581Z,0.90
2022-11-16T20:44:34.742Z,0.40
2022-11-16T20:47:05.716Z,0.88
2022-11-16T20:49:35.524Z,0.85
2022-11-16T20:52:05.530Z,0.63
2022-11-16T20:54:35.550Z,0.40
2022-11-16T20:57:05.922Z,0.40
2022-11-16T20:59:35.938Z,0.40
2022-11-16T21:02:06.338Z,0.20
2022-11-16T21:04:36.221Z,0.60
2022-11-16T21:07:06.195Z,0.43
2022-11-16T21:09:55.877Z,0.30
2022-11-16T21:12:44.718Z,0.32
2022-11-16T21:15:14.842Z,0.50
2022-11-16T21:17:44.686Z,0.30
2022-11-16T21:20:29.971Z,0.43
2022-11-16T21:23:00.677Z,0.63
2022-11-16T21:25:30.772Z,0.35
2022-11-16T21:28:00.672Z,0.50
2022-11-16T21:30:31.448Z,0.75
2022-11-16T21:33:01.952Z,0.80
2022-11-16T21:35:32.591Z,1.45
2022-11-16T21:38:03.290Z,3.70
2022-11-16T21:40:33.575Z,2.55
2022-11-16T21:43:03.425Z,3.60
2022-11-16T21:45:33.255Z,4.20
2022-11-16T21:48:03.586Z,2.88
2022-11-16T21:50:33.545Z,3.03
2022-11-16T21:53:03.786Z,2.20
2022-11-16T21:55:34.081Z,2.97
2022-11-16T21:58:07.419Z,3.42
2022-11-16T22:00:37.703Z,3.10
2022-11-16T22:03:07.790Z,1.85
2022-11-16T22:05:55.627Z,1.65
2022-11-16T22:08:26.366Z,1.80
2022-11-16T22:10:56.406Z,1.40
2022-11-16T22:13:26.253Z,1.77
2022-11-16T22:15:56.150Z,1.90
2022-11-16T22:18:26.328Z,2.80
2022-11-16T22:20:56.210Z,4.88
2022-11-16T22:23:26.497Z,2.92
2022-11-16T22:25:56.866Z,3.30
2022-11-16T22:28:27.047Z,3.38
2022-11-16T22:31:02.946Z,1.50
2022-11-16T22:33:36.185Z,1.13
2022-11-16T22:36:24.567Z,1.08
2022-11-16T22:38:55.130Z,3.10
2022-11-16T22:41:24.989Z,3.72
2022-11-16T22:43:54.926Z,2.85
2022-11-16T22:46:25.295Z,2.10
2022-11-16T22:48:55.399Z,1.20
2022-11-16T22:51:29.857Z,1.33
2022-11-16T22:54:05.200Z,0.98
2022-11-16T22:56:35.610Z,1.17
2022-11-16T22:59:06.891Z,1.23
2022-11-16T23:01:37.951Z,1.23
2022-11-16T23:04:08.113Z,1.63
2022-11-16T23:06:37.958Z,1.20
2022-11-16T23:09:08.066Z,1.23
2022-11-16T23:11:56.203Z,1.33
2022-11-16T23:14:44.888Z,1.75
2022-11-16T23:17:14.941Z,1.10
2022-11-16T23:20:03.133Z,0.98
2022-11-16T23:22:51.894Z,1.15
2022-11-16T23:25:40.266Z,1.20
2022-11-16T23:28:16.070Z,1.58
2022-11-16T23:30:46.196Z,2.17
2022-11-16T23:33:17.078Z,1.35
2022-11-16T23:35:47.440Z,1.10
2022-11-16T23:38:17.342Z,1.23
2022-11-16T23:40:47.231Z,0.85
2022-11-16T23:43:36.404Z,0.75
2022-11-16T23:46:07.133Z,1.25
2022-11-16T23:48:37.533Z,1.10
2022-11-16T23:51:07.580Z,1.00
2022-11-16T23:53:37.715Z,0.90
2022-11-16T23:56:08.256Z,0.85
2022-11-16T23:58:38.664Z,1.48
